Terminal Aerodrome Forecast
Issued by NWS Louisville, KY

Home | Current Version | Previous Version | Text Only | Print | Product List | Glossary On
Versions: 1 2 3 4 5 6 7 8 9 10 11 12 13 14 15
000
FTUS43 KLMK 090309 AAA
TAFLEX
TAF AMD
KLEX 090309Z 0903/0924 VRB04KT P6SM BKN250
     FM091000 19007KT P6SM FEW120
     FM091500 21013G18KT P6SM BKN080
     FM091700 27015G21KT P6SM OVC040 PROB30 0917/0923 3SM -SHSN
      OVC025=

USA.gov is the U.S. government's official web portal to all federal, state and local government web resources and services.